sensor_id;sensor_type;location;lat;lon;timestamp;P1;durP1;ratioP1;P2;durP2;ratioP2
74369;SDS011;62805;44.644;10.942;2023-04-01T00:02:22;25.47;;;13.47;;
74369;SDS011;62805;44.644;10.942;2023-04-01T00:04:47;23.05;;;12.23;;
74369;SDS011;62805;44.644;10.942;2023-04-01T00:07:13;25.83;;;13.33;;
74369;SDS011;62805;44.644;10.942;2023-04-01T00:09:39;26.48;;;13.52;;
74369;SDS011;62805;44.644;10.942;2023-04-01T00:12:04;21.98;;;12.23;;
74369;SDS011;62805;44.644;10.942;2023-04-01T00:14:29;30.52;;;15.05;;
74369;SDS011;62805;44.644;10.942;2023-04-01T00:16:55;27.70;;;13.57;;
74369;SDS011;62805;44.644;10.942;2023-04-01T00:19:22;28.25;;;13.57;;
74369;SDS011;62805;44.644;10.942;2023-04-01T00:21:47;22.40;;;13.05;;
74369;SDS011;62805;44.644;10.942;2023-04-01T00:24:13;32.72;;;13.25;;
74369;SDS011;62805;44.644;10.942;2023-04-01T00:26:38;25.95;;;14.00;;
74369;SDS011;62805;44.644;10.942;2023-04-01T00:29:04;31.52;;;15.07;;
74369;SDS011;62805;44.644;10.942;2023-04-01T00:31:30;24.63;;;14.55;;
74369;SDS011;62805;44.644;10.942;2023-04-01T00:33:55;31.83;;;16.33;;
74369;SDS011;62805;44.644;10.942;2023-04-01T00:36:21;30.73;;;15.35;;
74369;SDS011;62805;44.644;10.942;2023-04-01T00:38:48;31.95;;;15.82;;
74369;SDS011;62805;44.644;10.942;2023-04-01T00:41:15;34.45;;;15.68;;
74369;SDS011;62805;44.644;10.942;2023-04-01T00:46:07;30.63;;;16.10;;
74369;SDS011;62805;44.644;10.942;2023-04-01T00:48:34;31.20;;;15.85;;
74369;SDS011;62805;44.644;10.942;2023-04-01T00:51:06;29.60;;;15.20;;
74369;SDS011;62805;44.644;10.942;2023-04-01T00:53:35;32.70;;;15.85;;
74369;SDS011;62805;44.644;10.942;2023-04-01T00:56:04;29.60;;;14.60;;
74369;SDS011;62805;44.644;10.942;2023-04-01T00:58:35;32.55;;;16.67;;
74369;SDS011;62805;44.644;10.942;2023-04-01T01:01:04;31.17;;;16.27;;
74369;SDS011;62805;44.644;10.942;2023-04-01T01:03:31;32.75;;;16.20;;
74369;SDS011;62805;44.644;10.942;2023-04-01T01:08:51;33.03;;;16.88;;
74369;SDS011;62805;44.644;10.942;2023-04-01T01:11:42;27.65;;;16.75;;
74369;SDS011;62805;44.644;10.942;2023-04-01T01:17:02;36.72;;;18.35;;
74369;SDS011;62805;44.644;10.942;2023-04-01T01:19:52;38.40;;;18.25;;
74369;SDS011;62805;44.644;10.942;2023-04-01T01:28:11;33.50;;;16.67;;
74369;SDS011;62805;44.644;10.942;2023-04-01T01:31:02;32.75;;;17.73;;
74369;SDS011;62805;44.644;10.942;2023-04-01T01:36:18;33.35;;;18.20;;
74369;SDS011;62805;44.644;10.942;2023-04-01T01:38:46;34.17;;;17.67;;
74369;SDS011;62805;44.644;10.942;2023-04-01T01:41:15;35.70;;;18.35;;
74369;SDS011;62805;44.644;10.942;2023-04-01T01:43:43;35.33;;;18.70;;
74369;SDS011;62805;44.644;10.942;2023-04-01T01:46:13;40.83;;;18.95;;
74369;SDS011;62805;44.644;10.942;2023-04-01T01:48:42;34.15;;;17.17;;
74369;SDS011;62805;44.644;10.942;2023-04-01T01:51:09;38.05;;;17.98;;
74369;SDS011;62805;44.644;10.942;2023-04-01T01:53:34;35.00;;;18.73;;
74369;SDS011;62805;44.644;10.942;2023-04-01T01:56:02;43.30;;;19.55;;
74369;SDS011;62805;44.644;10.942;2023-04-01T01:58:38;32.25;;;17.42;;
74369;SDS011;62805;44.644;10.942;2023-04-01T02:01:29;33.75;;;19.13;;
74369;SDS011;62805;44.644;10.942;2023-04-01T02:03:55;35.63;;;18.23;;
74369;SDS011;62805;44.644;10.942;2023-04-01T02:06:23;33.42;;;18.42;;
74369;SDS011;62805;44.644;10.942;2023-04-01T02:09:08;36.30;;;19.50;;
74369;SDS011;62805;44.644;10.942;2023-04-01T02:12:19;35.60;;;18.77;;
74369;SDS011;62805;44.644;10.942;2023-04-01T02:15:12;33.70;;;18.48;;
74369;SDS011;62805;44.644;10.942;2023-04-01T02:17:26;40.80;;;20.88;;
74369;SDS011;62805;44.644;10.942;2023-04-01T02:20:08;36.90;;;20.42;;
74369;SDS011;62805;44.644;10.942;2023-04-01T02:22:48;33.58;;;19.38;;
74369;SDS011;62805;44.644;10.942;2023-04-01T02:25:26;37.90;;;20.95;;
74369;SDS011;62805;44.644;10.942;2023-04-01T02:27:53;38.80;;;20.75;;
74369;SDS011;62805;44.644;10.942;2023-04-01T02:30:21;39.65;;;19.67;;
74369;SDS011;62805;44.644;10.942;2023-04-01T02:32:48;34.63;;;19.92;;
74369;SDS011;62805;44.644;10.942;2023-04-01T02:35:14;37.60;;;20.15;;
74369;SDS011;62805;44.644;10.942;2023-04-01T02:37:41;36.03;;;20.17;;
74369;SDS011;62805;44.644;10.942;2023-04-01T02:40:08;36.53;;;20.08;;
74369;SDS011;62805;44.644;10.942;2023-04-01T02:42:38;38.72;;;19.38;;
74369;SDS011;62805;44.644;10.942;2023-04-01T02:45:04;35.40;;;19.85;;
74369;SDS011;62805;44.644;10.942;2023-04-01T02:47:31;36.58;;;19.48;;
74369;SDS011;62805;44.644;10.942;2023-04-01T02:49:57;40.03;;;20.30;;
74369;SDS011;62805;44.644;10.942;2023-04-01T02:52:32;38.22;;;19.05;;
74369;SDS011;62805;44.644;10.942;2023-04-01T02:54:58;36.20;;;18.88;;
74369;SDS011;62805;44.644;10.942;2023-04-01T02:57:24;41.83;;;18.63;;
74369;SDS011;62805;44.644;10.942;2023-04-01T02:59:50;38.40;;;18.95;;
74369;SDS011;62805;44.644;10.942;2023-04-01T03:02:15;38.80;;;18.37;;
74369;SDS011;62805;44.644;10.942;2023-04-01T03:04:41;36.55;;;18.85;;
74369;SDS011;62805;44.644;10.942;2023-04-01T03:07:07;35.28;;;19.17;;
74369;SDS011;62805;44.644;10.942;2023-04-01T03:09:34;36.38;;;19.33;;
74369;SDS011;62805;44.644;10.942;2023-04-01T03:12:00;39.53;;;19.30;;
74369;SDS011;62805;44.644;10.942;2023-04-01T03:14:26;33.60;;;17.80;;
74369;SDS011;62805;44.644;10.942;2023-04-01T03:16:51;32.87;;;19.17;;
74369;SDS011;62805;44.644;10.942;2023-04-01T03:19:16;31.33;;;17.30;;
74369;SDS011;62805;44.644;10.942;2023-04-01T03:21:42;36.65;;;19.42;;
74369;SDS011;62805;44.644;10.942;2023-04-01T03:24:07;31.50;;;17.98;;
74369;SDS011;62805;44.644;10.942;2023-04-01T03:26:33;38.53;;;19.38;;
74369;SDS011;62805;44.644;10.942;2023-04-01T03:28:58;37.60;;;18.87;;
74369;SDS011;62805;44.644;10.942;2023-04-01T03:31:24;37.23;;;18.90;;
74369;SDS011;62805;44.644;10.942;2023-04-01T03:33:49;35.42;;;18.45;;
74369;SDS011;62805;44.644;10.942;2023-04-01T03:36:15;49.28;;;21.08;;
74369;SDS011;62805;44.644;10.942;2023-04-01T03:38:41;33.40;;;18.15;;
74369;SDS011;62805;44.644;10.942;2023-04-01T03:41:07;38.95;;;19.23;;
74369;SDS011;62805;44.644;10.942;2023-04-01T03:43:37;34.78;;;18.42;;
74369;SDS011;62805;44.644;10.942;2023-04-01T03:46:02;34.00;;;17.40;;
74369;SDS011;62805;44.644;10.942;2023-04-01T03:48:27;35.95;;;18.83;;
74369;SDS011;62805;44.644;10.942;2023-04-01T03:50:53;39.03;;;20.00;;
74369;SDS011;62805;44.644;10.942;2023-04-01T03:53:18;44.88;;;21.15;;
74369;SDS011;62805;44.644;10.942;2023-04-01T03:55:44;35.97;;;19.55;;
74369;SDS011;62805;44.644;10.942;2023-04-01T03:58:10;38.85;;;19.83;;
74369;SDS011;62805;44.644;10.942;2023-04-01T04:00:35;44.00;;;21.67;;
74369;SDS011;62805;44.644;10.942;2023-04-01T04:03:01;43.25;;;22.77;;
74369;SDS011;62805;44.644;10.942;2023-04-01T04:05:27;43.22;;;22.42;;
74369;SDS011;62805;44.644;10.942;2023-04-01T04:07:53;40.65;;;22.27;;
74369;SDS011;62805;44.644;10.942;2023-04-01T04:10:21;44.38;;;21.55;;
74369;SDS011;62805;44.644;10.942;2023-04-01T04:12:48;38.97;;;21.20;;
74369;SDS011;62805;44.644;10.942;2023-04-01T04:15:14;38.58;;;21.42;;
74369;SDS011;62805;44.644;10.942;2023-04-01T04:17:40;44.03;;;23.15;;
74369;SDS011;62805;44.644;10.942;2023-04-01T04:20:06;40.67;;;21.42;;
74369;SDS011;62805;44.644;10.942;2023-04-01T04:22:33;41.13;;;22.30;;
74369;SDS011;62805;44.644;10.942;2023-04-01T04:24:58;40.03;;;21.50;;
74369;SDS011;62805;44.644;10.942;2023-04-01T04:27:23;41.88;;;22.83;;
74369;SDS011;62805;44.644;10.942;2023-04-01T04:29:49;48.77;;;23.07;;
74369;SDS011;62805;44.644;10.942;2023-04-01T04:32:14;41.20;;;22.23;;
74369;SDS011;62805;44.644;10.942;2023-04-01T04:34:40;39.97;;;22.40;;
74369;SDS011;62805;44.644;10.942;2023-04-01T04:37:05;40.97;;;22.88;;
74369;SDS011;62805;44.644;10.942;2023-04-01T04:39:30;41.63;;;22.70;;
74369;SDS011;62805;44.644;10.942;2023-04-01T04:41:56;44.42;;;23.00;;
74369;SDS011;62805;44.644;10.942;2023-04-01T04:44:21;39.30;;;22.63;;
74369;SDS011;62805;44.644;10.942;2023-04-01T04:46:46;44.53;;;25.38;;
74369;SDS011;62805;44.644;10.942;2023-04-01T04:49:12;46.50;;;25.40;;
74369;SDS011;62805;44.644;10.942;2023-04-01T04:51:38;46.95;;;24.23;;
74369;SDS011;62805;44.644;10.942;2023-04-01T04:54:03;40.17;;;22.63;;
74369;SDS011;62805;44.644;10.942;2023-04-01T04:56:30;43.92;;;23.90;;
74369;SDS011;62805;44.644;10.942;2023-04-01T04:58:56;48.50;;;24.52;;
74369;SDS011;62805;44.644;10.942;2023-04-01T05:01:22;43.45;;;23.63;;
74369;SDS011;62805;44.644;10.942;2023-04-01T05:03:48;45.88;;;24.02;;
74369;SDS011;62805;44.644;10.942;2023-04-01T05:06:14;46.13;;;23.00;;
74369;SDS011;62805;44.644;10.942;2023-04-01T05:08:41;45.40;;;23.52;;
74369;SDS011;62805;44.644;10.942;2023-04-01T05:11:09;39.67;;;21.77;;
74369;SDS011;62805;44.644;10.942;2023-04-01T05:13:37;40.75;;;22.50;;
74369;SDS011;62805;44.644;10.942;2023-04-01T05:16:03;43.58;;;21.85;;
74369;SDS011;62805;44.644;10.942;2023-04-01T05:18:28;37.88;;;20.25;;
74369;SDS011;62805;44.644;10.942;2023-04-01T05:20:54;35.30;;;18.40;;
74369;SDS011;62805;44.644;10.942;2023-04-01T05:23:20;38.20;;;19.88;;
74369;SDS011;62805;44.644;10.942;2023-04-01T05:25:47;32.65;;;16.42;;
74369;SDS011;62805;44.644;10.942;2023-04-01T05:28:13;36.00;;;18.65;;
74369;SDS011;62805;44.644;10.942;2023-04-01T05:30:40;34.70;;;19.08;;
74369;SDS011;62805;44.644;10.942;2023-04-01T05:33:06;34.30;;;17.52;;
74369;SDS011;62805;44.644;10.942;2023-04-01T05:35:32;34.80;;;17.23;;
74369;SDS011;62805;44.644;10.942;2023-04-01T05:37:58;36.03;;;18.83;;
74369;SDS011;62805;44.644;10.942;2023-04-01T05:40:23;31.08;;;17.58;;
74369;SDS011;62805;44.644;10.942;2023-04-01T05:42:48;32.47;;;17.45;;
74369;SDS011;62805;44.644;10.942;2023-04-01T05:45:14;31.98;;;17.90;;
74369;SDS011;62805;44.644;10.942;2023-04-01T05:47:40;31.90;;;17.40;;
74369;SDS011;62805;44.644;10.942;2023-04-01T05:50:07;29.92;;;16.60;;
74369;SDS011;62805;44.644;10.942;2023-04-01T05:52:33;27.42;;;16.20;;
74369;SDS011;62805;44.644;10.942;2023-04-01T05:54:59;25.98;;;16.45;;
74369;SDS011;62805;44.644;10.942;2023-04-01T05:57:25;27.25;;;15.82;;
74369;SDS011;62805;44.644;10.942;2023-04-01T05:59:51;31.45;;;17.42;;
74369;SDS011;62805;44.644;10.942;2023-04-01T06:02:16;27.37;;;15.90;;
74369;SDS011;62805;44.644;10.942;2023-04-01T06:04:43;29.17;;;16.73;;
74369;SDS011;62805;44.644;10.942;2023-04-01T06:07:12;25.85;;;15.27;;
74369;SDS011;62805;44.644;10.942;2023-04-01T06:09:39;29.02;;;16.20;;
74369;SDS011;62805;44.644;10.942;2023-04-01T06:20:22;28.23;;;14.93;;
74369;SDS011;62805;44.644;10.942;2023-04-01T06:33:56;27.27;;;14.80;;
74369;SDS011;62805;44.644;10.942;2023-04-01T06:36:50;25.80;;;14.10;;
74369;SDS011;62805;44.644;10.942;2023-04-01T06:39:36;26.92;;;14.43;;
74369;SDS011;62805;44.644;10.942;2023-04-01T06:47:57;26.52;;;13.75;;
74369;SDS011;62805;44.644;10.942;2023-04-01T06:50:42;22.80;;;12.80;;
74369;SDS011;62805;44.644;10.942;2023-04-01T06:53:29;26.25;;;12.98;;
74369;SDS011;62805;44.644;10.942;2023-04-01T06:56:13;27.80;;;13.18;;
74369;SDS011;62805;44.644;10.942;2023-04-01T06:58:42;24.00;;;12.80;;
74369;SDS011;62805;44.644;10.942;2023-04-01T07:01:16;20.48;;;11.23;;
74369;SDS011;62805;44.644;10.942;2023-04-01T07:03:49;27.52;;;14.27;;
74369;SDS011;62805;44.644;10.942;2023-04-01T07:08:56;24.60;;;12.73;;
74369;SDS011;62805;44.644;10.942;2023-04-01T07:11:31;21.45;;;11.65;;
74369;SDS011;62805;44.644;10.942;2023-04-01T07:14:00;23.67;;;13.27;;
74369;SDS011;62805;44.644;10.942;2023-04-01T07:16:34;24.55;;;11.52;;
74369;SDS011;62805;44.644;10.942;2023-04-01T07:21:56;28.40;;;14.55;;
74369;SDS011;62805;44.644;10.942;2023-04-01T07:24:26;22.55;;;13.02;;
74369;SDS011;62805;44.644;10.942;2023-04-01T07:26:56;24.55;;;12.30;;
74369;SDS011;62805;44.644;10.942;2023-04-01T07:29:23;22.88;;;11.68;;
74369;SDS011;62805;44.644;10.942;2023-04-01T07:37:11;19.03;;;12.20;;
74369;SDS011;62805;44.644;10.942;2023-04-01T07:40:05;25.08;;;12.02;;
74369;SDS011;62805;44.644;10.942;2023-04-01T07:53:16;19.50;;;9.90;;
74369;SDS011;62805;44.644;10.942;2023-04-01T07:56:05;14.90;;;8.70;;
74369;SDS011;62805;44.644;10.942;2023-04-01T08:15:21;16.83;;;9.27;;
74369;SDS011;62805;44.644;10.942;2023-04-01T08:20:41;19.52;;;10.18;;
74369;SDS011;62805;44.644;10.942;2023-04-01T08:25:44;14.30;;;8.45;;
74369;SDS011;62805;44.644;10.942;2023-04-01T08:31:13;14.02;;;8.40;;
74369;SDS011;62805;44.644;10.942;2023-04-01T08:33:47;17.70;;;9.57;;
74369;SDS011;62805;44.644;10.942;2023-04-01T08:36:17;16.25;;;8.35;;
74369;SDS011;62805;44.644;10.942;2023-04-01T08:38:50;20.45;;;10.20;;
74369;SDS011;62805;44.644;10.942;2023-04-01T09:08:22;15.75;;;7.68;;
74369;SDS011;62805;44.644;10.942;2023-04-01T09:11:08;14.25;;;8.57;;
74369;SDS011;62805;44.644;10.942;2023-04-01T09:22:07;11.75;;;6.78;;
74369;SDS011;62805;44.644;10.942;2023-04-01T09:29:53;10.88;;;6.43;;
74369;SDS011;62805;44.644;10.942;2023-04-01T09:35:34;11.02;;;6.43;;
74369;SDS011;62805;44.644;10.942;2023-04-01T09:38:23;9.05;;;6.20;;
74369;SDS011;62805;44.644;10.942;2023-04-01T09:40:56;11.20;;;6.15;;
74369;SDS011;62805;44.644;10.942;2023-04-01T09:43:39;11.73;;;5.75;;
74369;SDS011;62805;44.644;10.942;2023-04-01T10:30:33;6.53;;;3.78;;
74369;SDS011;62805;44.644;10.942;2023-04-01T10:36:31;5.38;;;3.55;;
74369;SDS011;62805;44.644;10.942;2023-04-01T10:45:02;6.68;;;3.83;;
74369;SDS011;62805;44.644;10.942;2023-04-01T10:58:56;4.88;;;3.03;;
74369;SDS011;62805;44.644;10.942;2023-04-01T11:13:06;4.70;;;3.17;;
74369;SDS011;62805;44.644;10.942;2023-04-01T11:29:35;6.60;;;2.75;;
74369;SDS011;62805;44.644;10.942;2023-04-01T11:37:21;4.78;;;2.88;;
74369;SDS011;62805;44.644;10.942;2023-04-01T11:46:11;4.88;;;2.20;;
74369;SDS011;62805;44.644;10.942;2023-04-01T11:48:45;3.75;;;2.45;;
74369;SDS011;62805;44.644;10.942;2023-04-01T11:56:59;3.78;;;2.38;;
74369;SDS011;62805;44.644;10.942;2023-04-01T12:05:54;8.43;;;3.35;;
74369;SDS011;62805;44.644;10.942;2023-04-01T12:11:10;7.65;;;3.75;;
74369;SDS011;62805;44.644;10.942;2023-04-01T12:13:45;11.00;;;3.42;;
74369;SDS011;62805;44.644;10.942;2023-04-01T12:16:29;5.45;;;2.58;;
74369;SDS011;62805;44.644;10.942;2023-04-01T12:27:20;6.22;;;2.80;;
74369;SDS011;62805;44.644;10.942;2023-04-01T12:35:43;6.20;;;3.43;;
74369;SDS011;62805;44.644;10.942;2023-04-01T12:38:36;3.78;;;2.50;;
74369;SDS011;62805;44.644;10.942;2023-04-01T12:44:47;3.92;;;1.90;;
74369;SDS011;62805;44.644;10.942;2023-04-01T12:55:50;3.95;;;2.42;;
74369;SDS011;62805;44.644;10.942;2023-04-01T13:01:56;2.40;;;0.90;;
74369;SDS011;62805;44.644;10.942;2023-04-01T13:05:09;1.65;;;0.77;;
74369;SDS011;62805;44.644;10.942;2023-04-01T13:15:25;0.80;;;0.50;;
74369;SDS011;62805;44.644;10.942;2023-04-01T13:20:49;0.55;;;0.40;;
74369;SDS011;62805;44.644;10.942;2023-04-01T13:29:04;0.50;;;0.30;;
74369;SDS011;62805;44.644;10.942;2023-04-01T13:42:21;0.32;;;0.10;;
74369;SDS011;62805;44.644;10.942;2023-04-01T13:45:14;0.20;;;0.03;;
74369;SDS011;62805;44.644;10.942;2023-04-01T13:50:46;0.40;;;0.20;;
74369;SDS011;62805;44.644;10.942;2023-04-01T13:56:34;0.80;;;0.22;;
74369;SDS011;62805;44.644;10.942;2023-04-01T14:07:46;0.85;;;0.52;;
74369;SDS011;62805;44.644;10.942;2023-04-01T14:10:29;1.58;;;0.60;;
74369;SDS011;62805;44.644;10.942;2023-04-01T14:13:10;1.80;;;0.10;;
74369;SDS011;62805;44.644;10.942;2023-04-01T14:15:55;0.60;;;0.20;;
74369;SDS011;62805;44.644;10.942;2023-04-01T14:21:35;0.80;;;0.25;;
74369;SDS011;62805;44.644;10.942;2023-04-01T14:24:20;0.20;;;0.00;;
74369;SDS011;62805;44.644;10.942;2023-04-01T14:32:45;0.30;;;0.10;;
74369;SDS011;62805;44.644;10.942;2023-04-01T14:40:45;0.22;;;0.10;;
74369;SDS011;62805;44.644;10.942;2023-04-01T14:43:28;0.60;;;0.00;;
74369;SDS011;62805;44.644;10.942;2023-04-01T14:49:05;0.15;;;0.03;;
74369;SDS011;62805;44.644;10.942;2023-04-01T14:51:42;0.52;;;0.10;;
74369;SDS011;62805;44.644;10.942;2023-04-01T14:56:40;0.22;;;0.10;;
74369;SDS011;62805;44.644;10.942;2023-04-01T14:59:25;0.47;;;0.10;;
74369;SDS011;62805;44.644;10.942;2023-04-01T15:11:06;1.40;;;0.10;;
74369;SDS011;62805;44.644;10.942;2023-04-01T15:32:44;0.30;;;0.10;;
74369;SDS011;62805;44.644;10.942;2023-04-01T15:37:55;0.40;;;0.13;;
74369;SDS011;62805;44.644;10.942;2023-04-01T15:40:44;0.30;;;0.20;;
74369;SDS011;62805;44.644;10.942;2023-04-01T15:46:39;0.30;;;0.08;;
74369;SDS011;62805;44.644;10.942;2023-04-01T15:54:51;0.32;;;0.20;;
74369;SDS011;62805;44.644;10.942;2023-04-01T16:02:52;0.60;;;0.20;;
74369;SDS011;62805;44.644;10.942;2023-04-01T16:11:14;0.80;;;0.30;;
74369;SDS011;62805;44.644;10.942;2023-04-01T16:13:48;0.43;;;0.25;;
74369;SDS011;62805;44.644;10.942;2023-04-01T16:24:24;0.15;;;0.13;;
74369;SDS011;62805;44.644;10.942;2023-04-01T16:27:25;0.90;;;0.25;;
74369;SDS011;62805;44.644;10.942;2023-04-01T16:32:45;0.65;;;0.20;;
74369;SDS011;62805;44.644;10.942;2023-04-01T16:38:24;0.90;;;0.40;;
74369;SDS011;62805;44.644;10.942;2023-04-01T16:41:00;1.58;;;0.20;;
74369;SDS011;62805;44.644;10.942;2023-04-01T16:43:38;1.52;;;0.47;;
74369;SDS011;62805;44.644;10.942;2023-04-01T16:51:26;4.18;;;0.35;;
74369;SDS011;62805;44.644;10.942;2023-04-01T16:54:02;1.88;;;0.20;;
74369;SDS011;62805;44.644;10.942;2023-04-01T16:56:49;0.52;;;0.20;;
74369;SDS011;62805;44.644;10.942;2023-04-01T16:59:38;0.98;;;0.30;;
74369;SDS011;62805;44.644;10.942;2023-04-01T17:02:12;4.03;;;0.40;;
74369;SDS011;62805;44.644;10.942;2023-04-01T17:04:47;0.98;;;0.25;;
74369;SDS011;62805;44.644;10.942;2023-04-01T17:18:05;2.38;;;0.13;;
74369;SDS011;62805;44.644;10.942;2023-04-01T17:20:40;1.73;;;0.22;;
74369;SDS011;62805;44.644;10.942;2023-04-01T17:23:18;2.28;;;0.30;;
74369;SDS011;62805;44.644;10.942;2023-04-01T17:31:11;0.90;;;0.30;;
74369;SDS011;62805;44.644;10.942;2023-04-01T17:36:40;1.13;;;0.40;;
74369;SDS011;62805;44.644;10.942;2023-04-01T17:44:44;1.95;;;0.73;;
74369;SDS011;62805;44.644;10.942;2023-04-01T17:50:18;3.13;;;0.80;;
74369;SDS011;62805;44.644;10.942;2023-04-01T17:56:00;1.52;;;0.60;;
74369;SDS011;62805;44.644;10.942;2023-04-01T18:01:19;4.05;;;0.60;;
74369;SDS011;62805;44.644;10.942;2023-04-01T18:21:06;2.92;;;0.90;;
74369;SDS011;62805;44.644;10.942;2023-04-01T18:23:59;2.20;;;0.90;;
74369;SDS011;62805;44.644;10.942;2023-04-01T18:26:32;3.00;;;0.85;;
74369;SDS011;62805;44.644;10.942;2023-04-01T18:29:01;4.05;;;0.90;;
74369;SDS011;62805;44.644;10.942;2023-04-01T18:32:48;3.25;;;1.00;;
74369;SDS011;62805;44.644;10.942;2023-04-01T18:37:41;5.20;;;1.17;;
74369;SDS011;62805;44.644;10.942;2023-04-01T18:40:15;4.30;;;0.95;;
74369;SDS011;62805;44.644;10.942;2023-04-01T18:45:59;6.38;;;1.60;;
74369;SDS011;62805;44.644;10.942;2023-04-01T18:51:17;4.72;;;1.10;;
74369;SDS011;62805;44.644;10.942;2023-04-01T18:53:56;4.13;;;1.20;;
74369;SDS011;62805;44.644;10.942;2023-04-01T18:56:24;5.05;;;1.15;;
74369;SDS011;62805;44.644;10.942;2023-04-01T18:58:58;3.00;;;1.00;;
74369;SDS011;62805;44.644;10.942;2023-04-01T19:01:57;3.00;;;1.02;;
74369;SDS011;62805;44.644;10.942;2023-04-01T19:04:31;5.22;;;1.23;;
74369;SDS011;62805;44.644;10.942;2023-04-01T19:07:21;4.60;;;1.20;;
74369;SDS011;62805;44.644;10.942;2023-04-01T19:23:53;4.00;;;1.40;;
74369;SDS011;62805;44.644;10.942;2023-04-01T19:48:01;3.83;;;1.08;;
74369;SDS011;62805;44.644;10.942;2023-04-01T19:50:38;2.78;;;1.05;;
74369;SDS011;62805;44.644;10.942;2023-04-01T19:53:17;4.55;;;1.75;;
74369;SDS011;62805;44.644;10.942;2023-04-01T20:01:24;5.57;;;1.50;;
74369;SDS011;62805;44.644;10.942;2023-04-01T20:04:03;5.13;;;1.33;;
74369;SDS011;62805;44.644;10.942;2023-04-01T20:14:30;5.03;;;1.35;;
74369;SDS011;62805;44.644;10.942;2023-04-01T20:27:44;8.07;;;1.80;;
74369;SDS011;62805;44.644;10.942;2023-04-01T20:44:19;5.90;;;1.88;;
74369;SDS011;62805;44.644;10.942;2023-04-01T20:47:02;3.85;;;1.77;;
74369;SDS011;62805;44.644;10.942;2023-04-01T20:58:38;5.18;;;1.73;;
74369;SDS011;62805;44.644;10.942;2023-04-01T21:01:27;8.52;;;1.83;;
74369;SDS011;62805;44.644;10.942;2023-04-01T21:10:41;6.50;;;1.42;;
74369;SDS011;62805;44.644;10.942;2023-04-01T21:16:10;3.38;;;1.40;;
74369;SDS011;62805;44.644;10.942;2023-04-01T21:29:50;4.97;;;1.50;;
74369;SDS011;62805;44.644;10.942;2023-04-01T21:34:58;5.68;;;1.35;;
74369;SDS011;62805;44.644;10.942;2023-04-01T21:45:22;7.93;;;1.45;;
74369;SDS011;62805;44.644;10.942;2023-04-01T21:59:23;6.13;;;1.30;;
74369;SDS011;62805;44.644;10.942;2023-04-01T22:13:35;4.63;;;0.85;;
74369;SDS011;62805;44.644;10.942;2023-04-01T22:16:16;5.10;;;1.30;;
74369;SDS011;62805;44.644;10.942;2023-04-01T22:21:24;4.50;;;1.45;;
74369;SDS011;62805;44.644;10.942;2023-04-01T22:24:06;4.15;;;1.30;;
74369;SDS011;62805;44.644;10.942;2023-04-01T22:29:52;6.85;;;1.10;;
74369;SDS011;62805;44.644;10.942;2023-04-01T22:32:32;6.28;;;1.00;;
74369;SDS011;62805;44.644;10.942;2023-04-01T22:40:22;2.53;;;1.20;;
74369;SDS011;62805;44.644;10.942;2023-04-01T22:43:03;4.78;;;0.80;;
74369;SDS011;62805;44.644;10.942;2023-04-01T22:48:29;7.57;;;1.15;;
74369;SDS011;62805;44.644;10.942;2023-04-01T22:51:06;4.60;;;1.00;;
74369;SDS011;62805;44.644;10.942;2023-04-01T22:53:42;6.93;;;1.65;;
74369;SDS011;62805;44.644;10.942;2023-04-01T22:56:37;4.57;;;1.10;;
74369;SDS011;62805;44.644;10.942;2023-04-01T22:59:20;5.45;;;1.23;;
74369;SDS011;62805;44.644;10.942;2023-04-01T23:01:48;4.32;;;0.98;;
74369;SDS011;62805;44.644;10.942;2023-04-01T23:04:21;7.03;;;1.08;;
74369;SDS011;62805;44.644;10.942;2023-04-01T23:06:52;6.60;;;1.30;;
74369;SDS011;62805;44.644;10.942;2023-04-01T23:09:26;4.80;;;0.98;;
74369;SDS011;62805;44.644;10.942;2023-04-01T23:12:03;6.45;;;1.33;;
74369;SDS011;62805;44.644;10.942;2023-04-01T23:14:37;5.03;;;1.15;;
74369;SDS011;62805;44.644;10.942;2023-04-01T23:35:51;4.97;;;1.25;;
74369;SDS011;62805;44.644;10.942;2023-04-01T23:38:19;5.97;;;1.30;;
74369;SDS011;62805;44.644;10.942;2023-04-01T23:40:52;7.32;;;1.08;;
74369;SDS011;62805;44.644;10.942;2023-04-01T23:43:26;6.13;;;1.58;;
74369;SDS011;62805;44.644;10.942;2023-04-01T23:45:56;5.65;;;0.98;;
74369;SDS011;62805;44.644;10.942;2023-04-01T23:48:26;6.15;;;1.20;;
74369;SDS011;62805;44.644;10.942;2023-04-01T23:50:56;10.40;;;1.80;;
74369;SDS011;62805;44.644;10.942;2023-04-01T23:53:23;5.20;;;1.20;;
74369;SDS011;62805;44.644;10.942;2023-04-01T23:55:50;5.72;;;1.30;;
74369;SDS011;62805;44.644;10.942;2023-04-01T23:58:21;3.42;;;0.93;;
